sensor_id;sensor_type;location;lat;lon;timestamp;pressure;altitude;pressure_sealevel;temperature;humidity
77153;BME280;66124;51.146;17.072;2023-02-28T00:00:15;101599.21;;;0.55;70.28
77153;BME280;66124;51.146;17.072;2023-02-28T00:03:04;101600.70;;;0.54;70.04
77153;BME280;66124;51.146;17.072;2023-02-28T00:05:34;101598.42;;;0.54;70.11
77153;BME280;66124;51.146;17.072;2023-02-28T00:08:04;101599.95;;;0.55;70.07
77153;BME280;66124;51.146;17.072;2023-02-28T00:10:33;101596.96;;;0.56;70.11
77153;BME280;66124;51.146;17.072;2023-02-28T00:13:05;101596.06;;;0.56;69.73
77153;BME280;66124;51.146;17.072;2023-02-28T00:15:35;101594.50;;;0.56;69.67
77153;BME280;66124;51.146;17.072;2023-02-28T00:18:04;101599.55;;;0.59;69.89
77153;BME280;66124;51.146;17.072;2023-02-28T00:20:33;101592.92;;;0.60;69.77
77153;BME280;66124;51.146;17.072;2023-02-28T00:23:03;101591.48;;;0.61;69.87
77153;BME280;66124;51.146;17.072;2023-02-28T00:25:32;101591.28;;;0.61;70.34
77153;BME280;66124;51.146;17.072;2023-02-28T00:28:02;101593.21;;;0.61;70.20
77153;BME280;66124;51.146;17.072;2023-02-28T00:30:31;101594.94;;;0.61;70.06
77153;BME280;66124;51.146;17.072;2023-02-28T00:33:00;101591.12;;;0.61;70.23
77153;BME280;66124;51.146;17.072;2023-02-28T00:35:30;101592.79;;;0.62;69.87
77153;BME280;66124;51.146;17.072;2023-02-28T00:37:59;101590.80;;;0.64;70.03
77153;BME280;66124;51.146;17.072;2023-02-28T00:40:29;101585.69;;;0.66;69.93
77153;BME280;66124;51.146;17.072;2023-02-28T00:42:58;101585.92;;;0.67;69.87
77153;BME280;66124;51.146;17.072;2023-02-28T00:45:28;101584.00;;;0.68;69.92
77153;BME280;66124;51.146;17.072;2023-02-28T00:47:57;101582.98;;;0.67;70.04
77153;BME280;66124;51.146;17.072;2023-02-28T00:50:27;101587.33;;;0.67;70.18
77153;BME280;66124;51.146;17.072;2023-02-28T00:52:56;101582.89;;;0.66;70.45
77153;BME280;66124;51.146;17.072;2023-02-28T00:55:25;101577.50;;;0.64;70.17
77153;BME280;66124;51.146;17.072;2023-02-28T00:57:55;101582.52;;;0.63;69.93
77153;BME280;66124;51.146;17.072;2023-02-28T01:00:25;101582.35;;;0.63;69.92
77153;BME280;66124;51.146;17.072;2023-02-28T01:02:54;101581.66;;;0.63;70.07
77153;BME280;66124;51.146;17.072;2023-02-28T01:05:24;101588.19;;;0.64;70.11
77153;BME280;66124;51.146;17.072;2023-02-28T01:07:53;101585.37;;;0.65;70.14
77153;BME280;66124;51.146;17.072;2023-02-28T01:10:21;101585.67;;;0.66;70.10
77153;BME280;66124;51.146;17.072;2023-02-28T01:12:49;101585.08;;;0.67;70.10
77153;BME280;66124;51.146;17.072;2023-02-28T01:22:44;101574.56;;;0.73;69.86
77153;BME280;66124;51.146;17.072;2023-02-28T01:25:13;101573.38;;;0.72;69.89
77153;BME280;66124;51.146;17.072;2023-02-28T01:27:43;101574.13;;;0.74;69.64
77153;BME280;66124;51.146;17.072;2023-02-28T01:30:13;101575.94;;;0.77;69.67
77153;BME280;66124;51.146;17.072;2023-02-28T01:32:42;101578.27;;;0.78;69.92
77153;BME280;66124;51.146;17.072;2023-02-28T01:35:12;101577.48;;;0.80;69.79
77153;BME280;66124;51.146;17.072;2023-02-28T01:37:42;101576.11;;;0.79;70.01
77153;BME280;66124;51.146;17.072;2023-02-28T01:40:13;101578.58;;;0.79;69.62
77153;BME280;66124;51.146;17.072;2023-02-28T01:42:43;101576.88;;;0.78;69.60
77153;BME280;66124;51.146;17.072;2023-02-28T01:45:24;101569.61;;;0.75;69.76
77153;BME280;66124;51.146;17.072;2023-02-28T01:47:58;101572.83;;;0.76;69.82
77153;BME280;66124;51.146;17.072;2023-02-28T01:50:33;101571.48;;;0.76;69.88
77153;BME280;66124;51.146;17.072;2023-02-28T01:53:09;101569.69;;;0.74;69.80
77153;BME280;66124;51.146;17.072;2023-02-28T01:55:42;101570.77;;;0.73;69.97
77153;BME280;66124;51.146;17.072;2023-02-28T01:58:14;101569.63;;;0.71;69.68
77153;BME280;66124;51.146;17.072;2023-02-28T02:00:45;101568.48;;;0.70;70.06
77153;BME280;66124;51.146;17.072;2023-02-28T02:03:16;101569.77;;;0.69;69.86
77153;BME280;66124;51.146;17.072;2023-02-28T02:05:47;101569.98;;;0.68;69.78
77153;BME280;66124;51.146;17.072;2023-02-28T02:08:19;101571.77;;;0.67;69.77
77153;BME280;66124;51.146;17.072;2023-02-28T02:10:52;101573.67;;;0.67;69.94
77153;BME280;66124;51.146;17.072;2023-02-28T02:13:30;101571.04;;;0.67;69.98
77153;BME280;66124;51.146;17.072;2023-02-28T02:16:10;101571.21;;;0.67;69.94
77153;BME280;66124;51.146;17.072;2023-02-28T02:18:46;101567.29;;;0.66;69.95
77153;BME280;66124;51.146;17.072;2023-02-28T02:21:42;101571.59;;;0.67;69.89
77153;BME280;66124;51.146;17.072;2023-02-28T02:25:00;101564.70;;;0.66;70.19
77153;BME280;66124;51.146;17.072;2023-02-28T02:27:50;101564.11;;;0.64;70.31
77153;BME280;66124;51.146;17.072;2023-02-28T02:30:40;101565.03;;;0.64;70.40
77153;BME280;66124;51.146;17.072;2023-02-28T02:39:06;101564.48;;;0.67;70.15
77153;BME280;66124;51.146;17.072;2023-02-28T02:41:47;101565.97;;;0.65;70.02
77153;BME280;66124;51.146;17.072;2023-02-28T02:44:19;101563.55;;;0.65;70.24
77153;BME280;66124;51.146;17.072;2023-02-28T02:46:53;101564.20;;;0.63;70.56
77153;BME280;66124;51.146;17.072;2023-02-28T02:49:27;101561.61;;;0.62;70.52
77153;BME280;66124;51.146;17.072;2023-02-28T02:52:00;101562.82;;;0.63;70.57
77153;BME280;66124;51.146;17.072;2023-02-28T02:54:33;101560.55;;;0.63;70.67
77153;BME280;66124;51.146;17.072;2023-02-28T02:57:04;101558.17;;;0.62;70.67
77153;BME280;66124;51.146;17.072;2023-02-28T02:59:35;101560.86;;;0.60;70.36
77153;BME280;66124;51.146;17.072;2023-02-28T03:02:08;101558.24;;;0.61;70.40
77153;BME280;66124;51.146;17.072;2023-02-28T03:04:43;101560.27;;;0.62;70.56
77153;BME280;66124;51.146;17.072;2023-02-28T03:07:13;101563.43;;;0.61;70.77
77153;BME280;66124;51.146;17.072;2023-02-28T03:09:51;101561.40;;;0.60;70.71
77153;BME280;66124;51.146;17.072;2023-02-28T03:12:22;101560.59;;;0.59;70.61
77153;BME280;66124;51.146;17.072;2023-02-28T03:14:59;101563.49;;;0.60;70.46
77153;BME280;66124;51.146;17.072;2023-02-28T03:17:54;101561.44;;;0.59;70.32
77153;BME280;66124;51.146;17.072;2023-02-28T03:20:37;101569.25;;;0.59;70.28
77153;BME280;66124;51.146;17.072;2023-02-28T03:23:15;101566.42;;;0.60;69.98
77153;BME280;66124;51.146;17.072;2023-02-28T03:25:56;101566.56;;;0.61;70.06
77153;BME280;66124;51.146;17.072;2023-02-28T03:28:34;101567.75;;;0.61;69.93
77153;BME280;66124;51.146;17.072;2023-02-28T03:31:13;101570.48;;;0.62;69.93
77153;BME280;66124;51.146;17.072;2023-02-28T03:33:46;101570.79;;;0.63;70.06
77153;BME280;66124;51.146;17.072;2023-02-28T03:36:21;101575.94;;;0.64;69.95
77153;BME280;66124;51.146;17.072;2023-02-28T03:38:54;101570.90;;;0.64;70.03
77153;BME280;66124;51.146;17.072;2023-02-28T03:41:29;101573.27;;;0.65;70.06
77153;BME280;66124;51.146;17.072;2023-02-28T03:44:05;101578.81;;;0.65;69.95
77153;BME280;66124;51.146;17.072;2023-02-28T03:46:39;101582.27;;;0.65;70.03
77153;BME280;66124;51.146;17.072;2023-02-28T03:49:11;101585.45;;;0.63;70.32
77153;BME280;66124;51.146;17.072;2023-02-28T03:51:41;101583.06;;;0.63;70.28
77153;BME280;66124;51.146;17.072;2023-02-28T03:55:27;101582.35;;;0.66;70.23
77153;BME280;66124;51.146;17.072;2023-02-28T03:58:04;101580.98;;;0.63;70.02
77153;BME280;66124;51.146;17.072;2023-02-28T04:00:39;101582.60;;;0.62;69.98
77153;BME280;66124;51.146;17.072;2023-02-28T04:03:10;101582.23;;;0.62;69.95
77153;BME280;66124;51.146;17.072;2023-02-28T04:05:50;101582.89;;;0.63;70.17
77153;BME280;66124;51.146;17.072;2023-02-28T04:08:21;101581.90;;;0.62;69.96
77153;BME280;66124;51.146;17.072;2023-02-28T04:11:00;101584.14;;;0.62;69.73
77153;BME280;66124;51.146;17.072;2023-02-28T04:13:31;101586.22;;;0.62;69.68
77153;BME280;66124;51.146;17.072;2023-02-28T04:16:00;101591.83;;;0.60;69.53
77153;BME280;66124;51.146;17.072;2023-02-28T04:18:30;101588.77;;;0.60;69.76
77153;BME280;66124;51.146;17.072;2023-02-28T04:21:01;101593.80;;;0.60;69.64
77153;BME280;66124;51.146;17.072;2023-02-28T04:23:31;101597.13;;;0.59;69.92
77153;BME280;66124;51.146;17.072;2023-02-28T04:26:00;101596.81;;;0.58;69.88
77153;BME280;66124;51.146;17.072;2023-02-28T04:28:30;101600.06;;;0.59;69.81
77153;BME280;66124;51.146;17.072;2023-02-28T04:31:00;101599.52;;;0.59;69.99
77153;BME280;66124;51.146;17.072;2023-02-28T04:33:30;101599.27;;;0.58;70.18
77153;BME280;66124;51.146;17.072;2023-02-28T04:36:02;101605.59;;;0.53;70.19
77153;BME280;66124;51.146;17.072;2023-02-28T04:38:34;101607.70;;;0.49;70.05
77153;BME280;66124;51.146;17.072;2023-02-28T04:41:05;101607.58;;;0.48;70.17
77153;BME280;66124;51.146;17.072;2023-02-28T04:43:34;101602.58;;;0.47;70.18
77153;BME280;66124;51.146;17.072;2023-02-28T04:46:05;101604.98;;;0.48;69.98
77153;BME280;66124;51.146;17.072;2023-02-28T04:48:36;101606.18;;;0.48;69.91
77153;BME280;66124;51.146;17.072;2023-02-28T04:51:09;101588.67;;;0.39;69.91
77153;BME280;66124;51.146;17.072;2023-02-28T04:53:37;101606.82;;;0.49;69.98
77153;BME280;66124;51.146;17.072;2023-02-28T04:56:10;101610.55;;;0.47;69.92
77153;BME280;66124;51.146;17.072;2023-02-28T04:58:40;101611.32;;;0.49;69.78
77153;BME280;66124;51.146;17.072;2023-02-28T05:01:18;101609.16;;;0.51;69.77
77153;BME280;66124;51.146;17.072;2023-02-28T05:03:49;101608.61;;;0.52;69.54
77153;BME280;66124;51.146;17.072;2023-02-28T05:06:17;101609.73;;;0.53;69.45
77153;BME280;66124;51.146;17.072;2023-02-28T05:09:41;101608.42;;;0.58;69.63
77153;BME280;66124;51.146;17.072;2023-02-28T05:12:11;101608.44;;;0.58;69.30
77153;BME280;66124;51.146;17.072;2023-02-28T05:14:40;101612.31;;;0.60;69.29
77153;BME280;66124;51.146;17.072;2023-02-28T05:17:11;101611.37;;;0.61;69.20
77153;BME280;66124;51.146;17.072;2023-02-28T05:19:40;101614.44;;;0.62;69.24
77153;BME280;66124;51.146;17.072;2023-02-28T05:22:15;101611.61;;;0.60;69.32
77153;BME280;66124;51.146;17.072;2023-02-28T05:24:44;101615.32;;;0.61;69.08
77153;BME280;66124;51.146;17.072;2023-02-28T05:27:14;101618.61;;;0.61;69.18
77153;BME280;66124;51.146;17.072;2023-02-28T05:29:43;101617.52;;;0.62;68.98
77153;BME280;66124;51.146;17.072;2023-02-28T05:32:13;101619.73;;;0.63;68.60
77153;BME280;66124;51.146;17.072;2023-02-28T05:34:42;101620.23;;;0.63;68.70
77153;BME280;66124;51.146;17.072;2023-02-28T05:43:40;101626.66;;;0.66;69.78
77153;BME280;66124;51.146;17.072;2023-02-28T05:46:11;101628.73;;;0.63;69.74
77153;BME280;66124;51.146;17.072;2023-02-28T05:48:41;101633.16;;;0.64;69.73
77153;BME280;66124;51.146;17.072;2023-02-28T05:51:11;101636.12;;;0.64;69.64
77153;BME280;66124;51.146;17.072;2023-02-28T05:53:40;101641.30;;;0.64;69.59
77153;BME280;66124;51.146;17.072;2023-02-28T05:56:10;101646.27;;;0.65;69.40
77153;BME280;66124;51.146;17.072;2023-02-28T05:58:39;101649.93;;;0.64;69.21
77153;BME280;66124;51.146;17.072;2023-02-28T06:01:31;101646.95;;;0.62;69.38
77153;BME280;66124;51.146;17.072;2023-02-28T06:04:01;101652.37;;;0.61;69.40
77153;BME280;66124;51.146;17.072;2023-02-28T06:06:31;101652.67;;;0.62;69.40
77153;BME280;66124;51.146;17.072;2023-02-28T06:09:01;101658.70;;;0.62;69.60
77153;BME280;66124;51.146;17.072;2023-02-28T06:11:31;101659.91;;;0.62;69.82
77153;BME280;66124;51.146;17.072;2023-02-28T06:14:01;101662.14;;;0.63;70.01
77153;BME280;66124;51.146;17.072;2023-02-28T06:16:32;101663.70;;;0.63;69.88
77153;BME280;66124;51.146;17.072;2023-02-28T06:19:03;101667.92;;;0.65;69.70
77153;BME280;66124;51.146;17.072;2023-02-28T06:21:33;101668.48;;;0.67;69.70
77153;BME280;66124;51.146;17.072;2023-02-28T06:24:03;101671.49;;;0.69;69.73
77153;BME280;66124;51.146;17.072;2023-02-28T06:26:33;101671.55;;;0.72;69.64
77153;BME280;66124;51.146;17.072;2023-02-28T06:29:02;101672.69;;;0.76;69.37
77153;BME280;66124;51.146;17.072;2023-02-28T06:31:31;101670.49;;;0.81;69.13
77153;BME280;66124;51.146;17.072;2023-02-28T06:34:01;101677.41;;;0.94;68.65
77153;BME280;66124;51.146;17.072;2023-02-28T06:36:30;101675.98;;;1.14;68.40
77153;BME280;66124;51.146;17.072;2023-02-28T06:38:59;101677.36;;;1.33;68.22
77153;BME280;66124;51.146;17.072;2023-02-28T06:41:29;101683.83;;;1.59;67.54
77153;BME280;66124;51.146;17.072;2023-02-28T06:43:58;101682.75;;;1.81;67.10
77153;BME280;66124;51.146;17.072;2023-02-28T06:46:28;101682.48;;;1.98;66.68
77153;BME280;66124;51.146;17.072;2023-02-28T06:48:57;101685.20;;;2.19;65.81
77153;BME280;66124;51.146;17.072;2023-02-28T06:51:26;101687.60;;;2.43;65.25
77153;BME280;66124;51.146;17.072;2023-02-28T06:53:54;101685.95;;;2.55;64.37
77153;BME280;66124;51.146;17.072;2023-02-28T06:56:22;101692.10;;;2.68;64.11
77153;BME280;66124;51.146;17.072;2023-02-28T06:59:10;101692.98;;;2.90;63.15
77153;BME280;66124;51.146;17.072;2023-02-28T07:01:39;101690.45;;;2.97;62.72
77153;BME280;66124;51.146;17.072;2023-02-28T07:04:08;101690.77;;;3.06;62.49
77153;BME280;66124;51.146;17.072;2023-02-28T07:06:38;101691.77;;;3.12;61.85
77153;BME280;66124;51.146;17.072;2023-02-28T07:09:07;101696.32;;;3.15;61.45
77153;BME280;66124;51.146;17.072;2023-02-28T07:11:38;101693.17;;;3.15;61.02
77153;BME280;66124;51.146;17.072;2023-02-28T07:14:08;101699.29;;;3.14;60.61
77153;BME280;66124;51.146;17.072;2023-02-28T07:16:37;101698.09;;;3.11;60.09
77153;BME280;66124;51.146;17.072;2023-02-28T07:19:07;101700.74;;;3.05;59.66
77153;BME280;66124;51.146;17.072;2023-02-28T07:21:36;101704.17;;;2.98;59.61
77153;BME280;66124;51.146;17.072;2023-02-28T07:24:07;101703.40;;;2.91;59.27
77153;BME280;66124;51.146;17.072;2023-02-28T07:26:36;101703.71;;;2.83;59.06
77153;BME280;66124;51.146;17.072;2023-02-28T07:29:06;101703.59;;;2.73;58.92
77153;BME280;66124;51.146;17.072;2023-02-28T07:31:35;101703.47;;;2.67;58.93
77153;BME280;66124;51.146;17.072;2023-02-28T07:34:05;101700.54;;;2.64;58.67
77153;BME280;66124;51.146;17.072;2023-02-28T07:36:34;101703.58;;;2.62;58.73
77153;BME280;66124;51.146;17.072;2023-02-28T07:39:03;101701.03;;;2.61;58.54
77153;BME280;66124;51.146;17.072;2023-02-28T07:41:33;101700.41;;;2.60;58.44
77153;BME280;66124;51.146;17.072;2023-02-28T07:44:02;101705.05;;;2.58;57.97
77153;BME280;66124;51.146;17.072;2023-02-28T07:46:32;101705.98;;;2.57;57.95
77153;BME280;66124;51.146;17.072;2023-02-28T07:49:01;101708.00;;;2.53;57.75
77153;BME280;66124;51.146;17.072;2023-02-28T07:51:31;101709.23;;;2.49;57.74
77153;BME280;66124;51.146;17.072;2023-02-28T07:54:01;101712.08;;;2.48;57.68
77153;BME280;66124;51.146;17.072;2023-02-28T07:56:30;101710.11;;;2.49;57.64
77153;BME280;66124;51.146;17.072;2023-02-28T07:59:00;101705.99;;;2.51;57.59
77153;BME280;66124;51.146;17.072;2023-02-28T08:01:29;101707.17;;;2.55;57.70
77153;BME280;66124;51.146;17.072;2023-02-28T08:03:58;101702.77;;;2.59;57.24
77153;BME280;66124;51.146;17.072;2023-02-28T08:06:28;101703.59;;;2.62;57.06
77153;BME280;66124;51.146;17.072;2023-02-28T08:08:57;101703.80;;;2.64;57.16
77153;BME280;66124;51.146;17.072;2023-02-28T08:11:25;101705.13;;;2.68;56.56
77153;BME280;66124;51.146;17.072;2023-02-28T08:17:30;101703.00;;;2.77;56.48
77153;BME280;66124;51.146;17.072;2023-02-28T08:20:00;101705.31;;;2.82;56.18
77153;BME280;66124;51.146;17.072;2023-02-28T08:22:29;101703.52;;;2.89;56.23
77153;BME280;66124;51.146;17.072;2023-02-28T08:24:58;101704.17;;;2.95;55.90
77153;BME280;66124;51.146;17.072;2023-02-28T08:27:28;101706.32;;;3.00;55.85
77153;BME280;66124;51.146;17.072;2023-02-28T08:29:59;101703.04;;;3.02;55.38
77153;BME280;66124;51.146;17.072;2023-02-28T08:32:28;101702.69;;;3.08;55.36
77153;BME280;66124;51.146;17.072;2023-02-28T08:34:58;101702.35;;;3.13;55.29
77153;BME280;66124;51.146;17.072;2023-02-28T08:37:27;101707.48;;;3.16;55.26
77153;BME280;66124;51.146;17.072;2023-02-28T08:39:56;101705.14;;;3.21;55.14
77153;BME280;66124;51.146;17.072;2023-02-28T08:42:26;101701.28;;;3.24;55.08
77153;BME280;66124;51.146;17.072;2023-02-28T08:44:55;101703.71;;;3.27;54.79
77153;BME280;66124;51.146;17.072;2023-02-28T08:47:25;101704.79;;;3.29;54.47
77153;BME280;66124;51.146;17.072;2023-02-28T08:49:54;101704.00;;;3.33;54.51
77153;BME280;66124;51.146;17.072;2023-02-28T08:52:23;101704.54;;;3.36;54.28
77153;BME280;66124;51.146;17.072;2023-02-28T08:54:53;101704.10;;;3.37;54.52
77153;BME280;66124;51.146;17.072;2023-02-28T08:57:22;101705.09;;;3.41;54.25
77153;BME280;66124;51.146;17.072;2023-02-28T08:59:51;101702.61;;;3.44;53.91
77153;BME280;66124;51.146;17.072;2023-02-28T09:02:21;101703.48;;;3.44;53.56
77153;BME280;66124;51.146;17.072;2023-02-28T09:04:50;101704.84;;;3.42;53.38
77153;BME280;66124;51.146;17.072;2023-02-28T09:07:19;101706.58;;;3.39;53.47
77153;BME280;66124;51.146;17.072;2023-02-28T09:09:49;101699.66;;;3.39;53.48
77153;BME280;66124;51.146;17.072;2023-02-28T09:12:18;101702.98;;;3.41;53.21
77153;BME280;66124;51.146;17.072;2023-02-28T09:14:48;101703.75;;;3.42;53.25
77153;BME280;66124;51.146;17.072;2023-02-28T09:17:17;101698.01;;;3.40;53.36
77153;BME280;66124;51.146;17.072;2023-02-28T09:19:50;101698.39;;;3.37;53.25
77153;BME280;66124;51.146;17.072;2023-02-28T09:22:19;101699.48;;;3.33;53.27
77153;BME280;66124;51.146;17.072;2023-02-28T09:24:48;101696.59;;;3.29;53.34
77153;BME280;66124;51.146;17.072;2023-02-28T09:27:18;101691.99;;;3.28;52.86
77153;BME280;66124;51.146;17.072;2023-02-28T09:29:46;101688.36;;;3.25;53.03
77153;BME280;66124;51.146;17.072;2023-02-28T09:53:18;101677.84;;;4.10;51.76
77153;BME280;66124;51.146;17.072;2023-02-28T09:55:51;101678.70;;;4.11;51.46
77153;BME280;66124;51.146;17.072;2023-02-28T09:58:28;101676.92;;;4.01;51.74
77153;BME280;66124;51.146;17.072;2023-02-28T10:01:05;101678.08;;;3.92;51.31
77153;BME280;66124;51.146;17.072;2023-02-28T10:03:40;101683.11;;;3.82;50.96
77153;BME280;66124;51.146;17.072;2023-02-28T10:06:16;101683.15;;;3.73;51.29
77153;BME280;66124;51.146;17.072;2023-02-28T10:08:52;101689.00;;;3.67;51.26
77153;BME280;66124;51.146;17.072;2023-02-28T10:11:26;101689.94;;;3.60;51.28
77153;BME280;66124;51.146;17.072;2023-02-28T10:14:00;101699.45;;;3.55;51.59
77153;BME280;66124;51.146;17.072;2023-02-28T10:16:34;101694.36;;;3.50;51.62
77153;BME280;66124;51.146;17.072;2023-02-28T10:19:09;101694.75;;;3.50;51.66
77153;BME280;66124;51.146;17.072;2023-02-28T10:21:44;101692.08;;;3.51;51.51
77153;BME280;66124;51.146;17.072;2023-02-28T10:24:21;101688.59;;;3.51;51.71
77153;BME280;66124;51.146;17.072;2023-02-28T10:26:55;101688.39;;;3.60;51.57
77153;BME280;66124;51.146;17.072;2023-02-28T10:29:26;101677.66;;;3.65;51.35
77153;BME280;66124;51.146;17.072;2023-02-28T10:31:55;101672.46;;;3.67;51.03
77153;BME280;66124;51.146;17.072;2023-02-28T10:34:25;101673.73;;;3.71;51.54
77153;BME280;66124;51.146;17.072;2023-02-28T10:36:55;101677.30;;;3.78;51.55
77153;BME280;66124;51.146;17.072;2023-02-28T10:39:41;101678.20;;;3.85;51.35
77153;BME280;66124;51.146;17.072;2023-02-28T10:42:24;101680.20;;;3.94;51.02
77153;BME280;66124;51.146;17.072;2023-02-28T10:45:14;101673.86;;;4.06;50.84
77153;BME280;66124;51.146;17.072;2023-02-28T10:47:51;101675.71;;;4.32;51.13
77153;BME280;66124;51.146;17.072;2023-02-28T10:50:34;101673.39;;;4.53;50.51
77153;BME280;66124;51.146;17.072;2023-02-28T10:53:28;101674.13;;;4.65;50.45
77153;BME280;66124;51.146;17.072;2023-02-28T10:56:01;101676.05;;;4.85;50.19
77153;BME280;66124;51.146;17.072;2023-02-28T10:58:40;101674.23;;;5.08;49.92
77153;BME280;66124;51.146;17.072;2023-02-28T11:01:17;101670.55;;;5.22;50.03
77153;BME280;66124;51.146;17.072;2023-02-28T11:03:48;101667.89;;;5.44;49.95
77153;BME280;66124;51.146;17.072;2023-02-28T11:12:25;101663.79;;;5.93;48.82
77153;BME280;66124;51.146;17.072;2023-02-28T11:14:58;101661.70;;;6.16;48.73
77153;BME280;66124;51.146;17.072;2023-02-28T11:17:31;101659.52;;;6.40;48.41
77153;BME280;66124;51.146;17.072;2023-02-28T11:20:00;101664.27;;;6.61;48.11
77153;BME280;66124;51.146;17.072;2023-02-28T11:22:33;101662.33;;;6.82;47.79
77153;BME280;66124;51.146;17.072;2023-02-28T11:25:10;101656.97;;;7.18;47.16
77153;BME280;66124;51.146;17.072;2023-02-28T11:27:49;101651.96;;;7.64;46.56
77153;BME280;66124;51.146;17.072;2023-02-28T11:30:31;101648.79;;;8.10;46.13
77153;BME280;66124;51.146;17.072;2023-02-28T11:33:01;101637.88;;;8.48;45.24
77153;BME280;66124;51.146;17.072;2023-02-28T11:35:49;101651.02;;;8.86;45.09
77153;BME280;66124;51.146;17.072;2023-02-28T11:38:19;101648.30;;;9.28;44.46
77153;BME280;66124;51.146;17.072;2023-02-28T11:41:00;101650.80;;;9.78;43.93
77153;BME280;66124;51.146;17.072;2023-02-28T11:43:43;101647.50;;;10.23;43.19
77153;BME280;66124;51.146;17.072;2023-02-28T11:46:27;101652.61;;;10.79;42.95
77153;BME280;66124;51.146;17.072;2023-02-28T11:49:06;101651.86;;;11.13;42.28
77153;BME280;66124;51.146;17.072;2023-02-28T11:51:49;101643.84;;;11.52;41.78
77153;BME280;66124;51.146;17.072;2023-02-28T11:54:32;101632.10;;;11.63;41.25
77153;BME280;66124;51.146;17.072;2023-02-28T11:57:19;101634.08;;;11.49;40.58
77153;BME280;66124;51.146;17.072;2023-02-28T11:59:59;101633.55;;;11.30;40.31
77153;BME280;66124;51.146;17.072;2023-02-28T12:02:38;101631.46;;;11.33;40.55
77153;BME280;66124;51.146;17.072;2023-02-28T12:05:24;101621.23;;;11.45;40.03
77153;BME280;66124;51.146;17.072;2023-02-28T12:08:10;101617.86;;;11.53;39.57
77153;BME280;66124;51.146;17.072;2023-02-28T12:10:56;101622.15;;;11.56;39.79
77153;BME280;66124;51.146;17.072;2023-02-28T12:13:37;101621.49;;;11.88;39.74
77153;BME280;66124;51.146;17.072;2023-02-28T12:16:29;101615.66;;;12.44;39.48
77153;BME280;66124;51.146;17.072;2023-02-28T12:19:16;101612.27;;;12.68;39.00
77153;BME280;66124;51.146;17.072;2023-02-28T12:21:50;101610.02;;;12.79;38.62
77153;BME280;66124;51.146;17.072;2023-02-28T12:24:30;101608.16;;;13.05;38.36
77153;BME280;66124;51.146;17.072;2023-02-28T12:32:25;101601.59;;;13.99;37.36
77153;BME280;66124;51.146;17.072;2023-02-28T12:35:01;101596.70;;;13.96;36.44
77153;BME280;66124;51.146;17.072;2023-02-28T12:37:34;101591.15;;;13.66;36.06
77153;BME280;66124;51.146;17.072;2023-02-28T12:40:12;101595.81;;;13.26;36.36
77153;BME280;66124;51.146;17.072;2023-02-28T12:42:44;101591.48;;;13.10;36.51
77153;BME280;66124;51.146;17.072;2023-02-28T12:45:18;101589.31;;;13.27;36.56
77153;BME280;66124;51.146;17.072;2023-02-28T12:47:53;101584.50;;;13.38;36.28
77153;BME280;66124;51.146;17.072;2023-02-28T12:50:25;101586.27;;;13.24;36.40
77153;BME280;66124;51.146;17.072;2023-02-28T12:53:00;101582.09;;;13.34;36.52
77153;BME280;66124;51.146;17.072;2023-02-28T12:55:38;101580.51;;;13.45;36.11
77153;BME280;66124;51.146;17.072;2023-02-28T12:58:18;101580.15;;;13.44;35.91
77153;BME280;66124;51.146;17.072;2023-02-28T13:01:05;101581.70;;;13.26;35.86
77153;BME280;66124;51.146;17.072;2023-02-28T13:04:17;101583.52;;;13.01;35.93
77153;BME280;66124;51.146;17.072;2023-02-28T13:07:04;101583.76;;;12.90;35.73
77153;BME280;66124;51.146;17.072;2023-02-28T13:09:35;101582.01;;;13.00;35.88
77153;BME280;66124;51.146;17.072;2023-02-28T13:12:14;101582.73;;;13.31;35.63
77153;BME280;66124;51.146;17.072;2023-02-28T13:14:44;101582.46;;;13.68;35.79
77153;BME280;66124;51.146;17.072;2023-02-28T13:17:19;101583.45;;;14.26;35.39
77153;BME280;66124;51.146;17.072;2023-02-28T13:19:58;101582.95;;;14.89;35.06
77153;BME280;66124;51.146;17.072;2023-02-28T13:22:42;101579.77;;;15.56;34.74
77153;BME280;66124;51.146;17.072;2023-02-28T13:34:42;101580.33;;;17.37;32.22
77153;BME280;66124;51.146;17.072;2023-02-28T13:37:34;101580.79;;;17.66;31.77
77153;BME280;66124;51.146;17.072;2023-02-28T13:40:31;101578.16;;;17.90;31.36
77153;BME280;66124;51.146;17.072;2023-02-28T13:43:00;101574.86;;;18.20;30.92
77153;BME280;66124;51.146;17.072;2023-02-28T13:52:47;101560.48;;;19.41;29.77
77153;BME280;66124;51.146;17.072;2023-02-28T13:55:32;101559.42;;;19.58;29.18
77153;BME280;66124;51.146;17.072;2023-02-28T13:58:23;101556.05;;;19.59;28.79
77153;BME280;66124;51.146;17.072;2023-02-28T14:01:11;101550.87;;;19.73;28.63
77153;BME280;66124;51.146;17.072;2023-02-28T14:04:21;101548.82;;;20.19;28.28
77153;BME280;66124;51.146;17.072;2023-02-28T14:07:00;101539.09;;;20.81;27.59
77153;BME280;66124;51.146;17.072;2023-02-28T14:09:30;101539.09;;;21.03;27.28
77153;BME280;66124;51.146;17.072;2023-02-28T14:15:23;101535.85;;;21.64;26.57
77153;BME280;66124;51.146;17.072;2023-02-28T14:17:55;101532.86;;;22.01;25.96
77153;BME280;66124;51.146;17.072;2023-02-28T14:20:29;101537.09;;;22.22;25.94
77153;BME280;66124;51.146;17.072;2023-02-28T14:23:06;101532.25;;;22.46;25.55
77153;BME280;66124;51.146;17.072;2023-02-28T14:25:43;101535.02;;;22.80;25.32
77153;BME280;66124;51.146;17.072;2023-02-28T14:28:22;101529.27;;;23.12;24.96
77153;BME280;66124;51.146;17.072;2023-02-28T14:31:07;101525.20;;;23.42;24.60
77153;BME280;66124;51.146;17.072;2023-02-28T14:33:48;101524.92;;;23.44;24.27
77153;BME280;66124;51.146;17.072;2023-02-28T14:36:27;101524.77;;;23.22;24.10
77153;BME280;66124;51.146;17.072;2023-02-28T14:39:03;101529.05;;;22.71;24.15